sensor_id;sensor_type;location;lat;lon;timestamp;pressure;altitude;pressure_sealevel;temperature;humidity
61710;BME280;47633;51.494;5.386;2022-12-18T00:01:02;102709.66;;;18.19;33.64
61710;BME280;47633;51.494;5.386;2022-12-18T00:03:32;102713.22;;;18.18;33.79
61710;BME280;47633;51.494;5.386;2022-12-18T00:05:58;102711.44;;;18.18;33.41
61710;BME280;47633;51.494;5.386;2022-12-18T00:08:23;102715.88;;;18.18;33.39
61710;BME280;47633;51.494;5.386;2022-12-18T00:10:48;102709.97;;;18.12;33.26
61710;BME280;47633;51.494;5.386;2022-12-18T00:13:14;102716.03;;;18.15;33.20
61710;BME280;47633;51.494;5.386;2022-12-18T00:15:39;102716.97;;;18.13;33.56
61710;BME280;47633;51.494;5.386;2022-12-18T00:18:05;102716.19;;;18.11;33.42
61710;BME280;47633;51.494;5.386;2022-12-18T00:20:32;102712.78;;;18.09;33.34
61710;BME280;47633;51.494;5.386;2022-12-18T00:23:00;102694.47;;;18.06;33.52
61710;BME280;47633;51.494;5.386;2022-12-18T00:25:25;102691.16;;;18.03;33.62
61710;BME280;47633;51.494;5.386;2022-12-18T00:27:51;102683.16;;;18.04;33.39
61710;BME280;47633;51.494;5.386;2022-12-18T00:30:16;102677.00;;;18.04;33.04
61710;BME280;47633;51.494;5.386;2022-12-18T00:32:41;102684.00;;;18.05;33.34
61710;BME280;47633;51.494;5.386;2022-12-18T00:35:07;102681.44;;;18.03;33.42
61710;BME280;47633;51.494;5.386;2022-12-18T00:37:35;102677.16;;;18.01;33.38
61710;BME280;47633;51.494;5.386;2022-12-18T00:40:00;102680.66;;;18.01;33.05
61710;BME280;47633;51.494;5.386;2022-12-18T00:42:26;102667.63;;;17.98;33.07
61710;BME280;47633;51.494;5.386;2022-12-18T00:45:10;102670.44;;;17.95;33.14
61710;BME280;47633;51.494;5.386;2022-12-18T00:47:35;102670.34;;;17.97;33.07
61710;BME280;47633;51.494;5.386;2022-12-18T00:50:00;102670.50;;;17.93;32.89
61710;BME280;47633;51.494;5.386;2022-12-18T00:52:25;102673.22;;;17.92;33.14
61710;BME280;47633;51.494;5.386;2022-12-18T00:54:51;102666.31;;;17.89;32.68
61710;BME280;47633;51.494;5.386;2022-12-18T00:57:16;102661.13;;;17.88;32.71
61710;BME280;47633;51.494;5.386;2022-12-18T00:59:41;102669.16;;;17.85;32.71
61710;BME280;47633;51.494;5.386;2022-12-18T01:02:06;102661.44;;;17.82;33.03
61710;BME280;47633;51.494;5.386;2022-12-18T01:04:32;102684.91;;;17.86;32.83
61710;BME280;47633;51.494;5.386;2022-12-18T01:06:58;102676.28;;;17.83;33.06
61710;BME280;47633;51.494;5.386;2022-12-18T01:09:23;102673.66;;;17.83;32.72
61710;BME280;47633;51.494;5.386;2022-12-18T01:11:48;102677.31;;;17.80;32.85
61710;BME280;47633;51.494;5.386;2022-12-18T01:14:14;102685.25;;;17.80;32.82
61710;BME280;47633;51.494;5.386;2022-12-18T01:16:39;102686.22;;;17.77;32.84
61710;BME280;47633;51.494;5.386;2022-12-18T01:19:05;102687.94;;;17.79;32.49
61710;BME280;47633;51.494;5.386;2022-12-18T01:21:30;102691.66;;;17.74;32.67
61710;BME280;47633;51.494;5.386;2022-12-18T01:23:56;102689.78;;;17.76;32.81
61710;BME280;47633;51.494;5.386;2022-12-18T01:26:23;102695.28;;;17.72;32.58
61710;BME280;47633;51.494;5.386;2022-12-18T01:28:48;102697.94;;;17.72;32.58
61710;BME280;47633;51.494;5.386;2022-12-18T01:31:19;102688.50;;;17.68;32.79
61710;BME280;47633;51.494;5.386;2022-12-18T01:33:45;102694.44;;;17.71;32.39
61710;BME280;47633;51.494;5.386;2022-12-18T01:36:39;102695.28;;;17.72;32.76
61710;BME280;47633;51.494;5.386;2022-12-18T01:39:11;102679.88;;;17.64;32.68
61710;BME280;47633;51.494;5.386;2022-12-18T01:41:37;102684.97;;;17.67;32.74
61710;BME280;47633;51.494;5.386;2022-12-18T01:47:06;102691.88;;;17.70;32.48
61710;BME280;47633;51.494;5.386;2022-12-18T01:49:31;102683.38;;;17.65;32.50
61710;BME280;47633;51.494;5.386;2022-12-18T01:51:56;102684.34;;;17.62;32.61
61710;BME280;47633;51.494;5.386;2022-12-18T01:54:21;102687.06;;;17.61;32.76
61710;BME280;47633;51.494;5.386;2022-12-18T01:56:47;102684.44;;;17.61;32.74
61710;BME280;47633;51.494;5.386;2022-12-18T01:59:13;102686.22;;;17.60;32.76
61710;BME280;47633;51.494;5.386;2022-12-18T02:01:38;102685.47;;;17.58;32.61
61710;BME280;47633;51.494;5.386;2022-12-18T02:04:22;102675.75;;;17.58;32.56
61710;BME280;47633;51.494;5.386;2022-12-18T02:06:50;102672.06;;;17.63;32.52
61710;BME280;47633;51.494;5.386;2022-12-18T02:09:25;102674.03;;;17.57;32.31
61710;BME280;47633;51.494;5.386;2022-12-18T02:12:19;102658.31;;;17.56;32.31
61710;BME280;47633;51.494;5.386;2022-12-18T02:17:44;102675.38;;;17.49;32.48
61710;BME280;47633;51.494;5.386;2022-12-18T02:20:18;102675.28;;;17.50;32.54
61710;BME280;47633;51.494;5.386;2022-12-18T02:22:58;102681.47;;;17.49;32.34
61710;BME280;47633;51.494;5.386;2022-12-18T02:28:30;102671.09;;;17.46;32.33
61710;BME280;47633;51.494;5.386;2022-12-18T02:30:59;102673.72;;;17.46;32.62
61710;BME280;47633;51.494;5.386;2022-12-18T02:33:27;102664.44;;;17.39;32.56
61710;BME280;47633;51.494;5.386;2022-12-18T02:35:55;102665.88;;;17.45;32.55
61710;BME280;47633;51.494;5.386;2022-12-18T02:38:23;102663.41;;;17.41;32.56
61710;BME280;47633;51.494;5.386;2022-12-18T02:40:51;102659.84;;;17.43;32.49
61710;BME280;47633;51.494;5.386;2022-12-18T02:43:18;102660.00;;;17.39;32.37
61710;BME280;47633;51.494;5.386;2022-12-18T02:45:53;102659.00;;;17.42;32.40
61710;BME280;47633;51.494;5.386;2022-12-18T02:48:23;102655.56;;;17.40;32.37
61710;BME280;47633;51.494;5.386;2022-12-18T02:51:04;102648.63;;;17.39;32.35
61710;BME280;47633;51.494;5.386;2022-12-18T02:53:37;102645.91;;;17.40;32.30
61710;BME280;47633;51.494;5.386;2022-12-18T02:56:26;102643.28;;;17.40;32.83
61710;BME280;47633;51.494;5.386;2022-12-18T03:02:27;102645.97;;;17.39;32.48
61710;BME280;47633;51.494;5.386;2022-12-18T03:05:02;102641.69;;;17.36;32.74
61710;BME280;47633;51.494;5.386;2022-12-18T03:07:39;102635.50;;;17.37;32.65
61710;BME280;47633;51.494;5.386;2022-12-18T03:10:09;102628.38;;;17.39;32.73
61710;BME280;47633;51.494;5.386;2022-12-18T03:12:41;102621.38;;;17.38;32.30
61710;BME280;47633;51.494;5.386;2022-12-18T03:15:13;102615.19;;;17.39;32.37
61710;BME280;47633;51.494;5.386;2022-12-18T03:17:41;102620.53;;;17.38;32.56
61710;BME280;47633;51.494;5.386;2022-12-18T03:20:15;102625.66;;;17.41;32.89
61710;BME280;47633;51.494;5.386;2022-12-18T03:22:44;102620.47;;;17.39;32.41
61710;BME280;47633;51.494;5.386;2022-12-18T03:25:13;102623.88;;;17.41;32.84
61710;BME280;47633;51.494;5.386;2022-12-18T03:27:45;102624.75;;;17.42;32.68
61710;BME280;47633;51.494;5.386;2022-12-18T03:30:14;102610.84;;;17.38;32.76
61710;BME280;47633;51.494;5.386;2022-12-18T03:32:44;102627.31;;;17.44;33.06
61710;BME280;47633;51.494;5.386;2022-12-18T03:35:13;102626.44;;;17.43;32.68
61710;BME280;47633;51.494;5.386;2022-12-18T03:37:43;102618.44;;;17.45;32.25
61710;BME280;47633;51.494;5.386;2022-12-18T03:40:09;102635.06;;;17.47;32.94
61710;BME280;47633;51.494;5.386;2022-12-18T03:42:48;102631.56;;;17.46;32.70
61710;BME280;47633;51.494;5.386;2022-12-18T03:45:28;102625.34;;;17.47;32.66
61710;BME280;47633;51.494;5.386;2022-12-18T03:48:02;102621.88;;;17.47;32.73
61710;BME280;47633;51.494;5.386;2022-12-18T03:50:37;102617.59;;;17.44;32.84
61710;BME280;47633;51.494;5.386;2022-12-18T03:53:28;102620.09;;;17.47;33.06
61710;BME280;47633;51.494;5.386;2022-12-18T03:55:59;102605.19;;;17.46;32.68
61710;BME280;47633;51.494;5.386;2022-12-18T03:58:27;102596.44;;;17.46;32.86
61710;BME280;47633;51.494;5.386;2022-12-18T04:00:56;102588.63;;;17.44;32.96
61710;BME280;47633;51.494;5.386;2022-12-18T04:03:23;102586.66;;;17.48;32.59
61710;BME280;47633;51.494;5.386;2022-12-18T04:05:50;102583.19;;;17.47;32.83
61710;BME280;47633;51.494;5.386;2022-12-18T04:08:17;102576.19;;;17.46;32.69
61710;BME280;47633;51.494;5.386;2022-12-18T04:10:42;102575.44;;;17.44;32.90
61710;BME280;47633;51.494;5.386;2022-12-18T04:13:09;102570.09;;;17.46;33.01
61710;BME280;47633;51.494;5.386;2022-12-18T04:15:35;102574.50;;;17.45;32.87
61710;BME280;47633;51.494;5.386;2022-12-18T04:18:01;102567.38;;;17.47;32.97
61710;BME280;47633;51.494;5.386;2022-12-18T04:20:27;102562.19;;;17.46;32.97
61710;BME280;47633;51.494;5.386;2022-12-18T04:22:52;102562.03;;;17.49;32.71
61710;BME280;47633;51.494;5.386;2022-12-18T04:25:18;102554.28;;;17.46;32.66
61710;BME280;47633;51.494;5.386;2022-12-18T04:27:43;102569.84;;;17.50;32.93
61710;BME280;47633;51.494;5.386;2022-12-18T04:30:09;102568.22;;;17.48;32.75
61710;BME280;47633;51.494;5.386;2022-12-18T04:32:34;102571.88;;;17.45;32.98
61710;BME280;47633;51.494;5.386;2022-12-18T04:35:00;102570.84;;;17.48;32.94
61710;BME280;47633;51.494;5.386;2022-12-18T04:37:25;102586.59;;;17.49;32.59
61710;BME280;47633;51.494;5.386;2022-12-18T04:39:50;102584.78;;;17.50;32.60
61710;BME280;47633;51.494;5.386;2022-12-18T04:42:16;102591.84;;;17.49;33.00
61710;BME280;47633;51.494;5.386;2022-12-18T04:44:41;102591.84;;;17.49;32.97
61710;BME280;47633;51.494;5.386;2022-12-18T04:47:06;102589.31;;;17.48;32.86
61710;BME280;47633;51.494;5.386;2022-12-18T04:49:32;102601.47;;;17.50;32.43
61710;BME280;47633;51.494;5.386;2022-12-18T04:51:58;102613.78;;;17.50;32.79
61710;BME280;47633;51.494;5.386;2022-12-18T04:54:23;102607.81;;;17.46;32.86
61710;BME280;47633;51.494;5.386;2022-12-18T04:56:48;102613.03;;;17.48;32.67
61710;BME280;47633;51.494;5.386;2022-12-18T04:59:13;102600.88;;;17.45;32.47
61710;BME280;47633;51.494;5.386;2022-12-18T05:01:39;102608.69;;;17.47;32.62
61710;BME280;47633;51.494;5.386;2022-12-18T05:04:04;102612.94;;;17.49;32.69
61710;BME280;47633;51.494;5.386;2022-12-18T05:06:30;102606.06;;;17.47;32.81
61710;BME280;47633;51.494;5.386;2022-12-18T05:08:55;102598.22;;;17.45;32.46
61710;BME280;47633;51.494;5.386;2022-12-18T05:11:21;102614.06;;;17.45;32.46
61710;BME280;47633;51.494;5.386;2022-12-18T05:13:46;102616.69;;;17.45;32.45
61710;BME280;47633;51.494;5.386;2022-12-18T05:16:12;102599.38;;;17.39;32.84
61710;BME280;47633;51.494;5.386;2022-12-18T05:18:38;102607.81;;;17.46;32.52
61710;BME280;47633;51.494;5.386;2022-12-18T05:21:04;102614.81;;;17.47;32.66
61710;BME280;47633;51.494;5.386;2022-12-18T05:23:29;102604.34;;;17.46;32.63
61710;BME280;47633;51.494;5.386;2022-12-18T05:26:00;102611.34;;;17.47;32.59
61710;BME280;47633;51.494;5.386;2022-12-18T05:28:27;102605.13;;;17.48;32.81
61710;BME280;47633;51.494;5.386;2022-12-18T05:30:55;102601.88;;;17.43;32.60
61710;BME280;47633;51.494;5.386;2022-12-18T05:33:22;102600.88;;;17.45;32.61
61710;BME280;47633;51.494;5.386;2022-12-18T05:35:52;102609.63;;;17.46;33.24
61710;BME280;47633;51.494;5.386;2022-12-18T05:38:19;102603.44;;;17.47;33.31
61710;BME280;47633;51.494;5.386;2022-12-18T05:40:44;102591.09;;;17.47;33.75
61710;BME280;47633;51.494;5.386;2022-12-18T05:43:10;102591.56;;;17.55;34.19
61710;BME280;47633;51.494;5.386;2022-12-18T05:45:39;102582.81;;;17.55;34.70
61710;BME280;47633;51.494;5.386;2022-12-18T05:48:04;102584.25;;;17.61;34.70
61710;BME280;47633;51.494;5.386;2022-12-18T05:50:30;102578.81;;;17.64;34.81
61710;BME280;47633;51.494;5.386;2022-12-18T05:52:55;102592.53;;;17.70;35.06
61710;BME280;47633;51.494;5.386;2022-12-18T05:55:20;102585.50;;;17.71;34.88
61710;BME280;47633;51.494;5.386;2022-12-18T05:57:46;102579.97;;;17.75;34.67
61710;BME280;47633;51.494;5.386;2022-12-18T06:00:11;102580.81;;;17.76;34.79
61710;BME280;47633;51.494;5.386;2022-12-18T06:02:37;102582.47;;;17.79;34.92
61710;BME280;47633;51.494;5.386;2022-12-18T06:05:02;102581.28;;;17.84;34.95
61710;BME280;47633;51.494;5.386;2022-12-18T06:07:28;102574.13;;;17.86;34.87
61710;BME280;47633;51.494;5.386;2022-12-18T06:09:53;102575.84;;;17.87;34.77
61710;BME280;47633;51.494;5.386;2022-12-18T06:12:18;102581.81;;;17.91;34.94
61710;BME280;47633;51.494;5.386;2022-12-18T06:14:43;102579.28;;;17.89;34.64
61710;BME280;47633;51.494;5.386;2022-12-18T06:17:09;102582.84;;;17.88;34.97
61710;BME280;47633;51.494;5.386;2022-12-18T06:19:34;102588.75;;;17.93;34.85
61710;BME280;47633;51.494;5.386;2022-12-18T06:21:59;102586.94;;;17.94;34.61
61710;BME280;47633;51.494;5.386;2022-12-18T06:24:24;102588.66;;;17.95;34.96
61710;BME280;47633;51.494;5.386;2022-12-18T06:26:50;102586.84;;;17.95;34.67
61710;BME280;47633;51.494;5.386;2022-12-18T06:29:15;102586.84;;;17.95;34.47
61710;BME280;47633;51.494;5.386;2022-12-18T06:31:40;102588.56;;;17.97;34.43
61710;BME280;47633;51.494;5.386;2022-12-18T06:34:05;102584.31;;;17.94;34.81
61710;BME280;47633;51.494;5.386;2022-12-18T06:36:31;102584.31;;;17.94;34.37
61710;BME280;47633;51.494;5.386;2022-12-18T06:38:57;102577.41;;;17.91;34.42
61710;BME280;47633;51.494;5.386;2022-12-18T06:41:22;102577.34;;;17.93;34.55
61710;BME280;47633;51.494;5.386;2022-12-18T06:43:48;102571.13;;;17.94;34.52
61710;BME280;47633;51.494;5.386;2022-12-18T06:46:13;102568.47;;;17.94;34.09
61710;BME280;47633;51.494;5.386;2022-12-18T06:48:39;102566.63;;;17.96;34.25
61710;BME280;47633;51.494;5.386;2022-12-18T06:51:04;102557.16;;;17.92;34.25
61710;BME280;47633;51.494;5.386;2022-12-18T06:53:31;102563.28;;;17.92;34.11
61710;BME280;47633;51.494;5.386;2022-12-18T06:56:01;102558.16;;;17.89;34.40
61710;BME280;47633;51.494;5.386;2022-12-18T06:58:27;102564.91;;;17.95;34.39
61710;BME280;47633;51.494;5.386;2022-12-18T07:00:52;102565.75;;;17.95;34.22
61710;BME280;47633;51.494;5.386;2022-12-18T07:03:18;102568.41;;;17.95;34.04
61710;BME280;47633;51.494;5.386;2022-12-18T07:05:43;102572.00;;;17.94;34.40
61710;BME280;47633;51.494;5.386;2022-12-18T07:08:08;102562.28;;;17.95;34.33
61710;BME280;47633;51.494;5.386;2022-12-18T07:10:40;102555.19;;;17.95;34.12
61710;BME280;47633;51.494;5.386;2022-12-18T07:13:06;102553.44;;;17.96;34.16
61710;BME280;47633;51.494;5.386;2022-12-18T07:15:31;102542.00;;;17.95;34.53
61710;BME280;47633;51.494;5.386;2022-12-18T07:17:56;102541.09;;;17.97;34.26
61710;BME280;47633;51.494;5.386;2022-12-18T07:20:21;102528.06;;;17.93;34.17
61710;BME280;47633;51.494;5.386;2022-12-18T07:22:46;102532.25;;;17.98;34.32
61710;BME280;47633;51.494;5.386;2022-12-18T07:25:12;102514.03;;;17.93;34.25
61710;BME280;47633;51.494;5.386;2022-12-18T07:27:37;102510.28;;;17.97;34.21
61710;BME280;47633;51.494;5.386;2022-12-18T07:30:03;102506.72;;;17.98;34.00
61710;BME280;47633;51.494;5.386;2022-12-18T07:32:30;102500.69;;;17.96;34.04
61710;BME280;47633;51.494;5.386;2022-12-18T07:34:55;102496.34;;;17.95;34.46
61710;BME280;47633;51.494;5.386;2022-12-18T07:37:20;102494.63;;;17.94;34.38
61710;BME280;47633;51.494;5.386;2022-12-18T07:39:46;102498.13;;;17.94;34.24
61710;BME280;47633;51.494;5.386;2022-12-18T07:42:11;102494.44;;;17.97;34.31
61710;BME280;47633;51.494;5.386;2022-12-18T07:44:55;102482.13;;;17.98;34.17
61710;BME280;47633;51.494;5.386;2022-12-18T07:47:20;102483.81;;;17.99;34.15
61710;BME280;47633;51.494;5.386;2022-12-18T07:49:46;102474.13;;;17.99;34.09
61710;BME280;47633;51.494;5.386;2022-12-18T07:52:11;102462.72;;;17.99;34.41
61710;BME280;47633;51.494;5.386;2022-12-18T07:54:37;102470.53;;;18.00;34.25
61710;BME280;47633;51.494;5.386;2022-12-18T07:57:03;102465.19;;;18.02;34.36
61710;BME280;47633;51.494;5.386;2022-12-18T07:59:28;102451.31;;;17.98;34.22
61710;BME280;47633;51.494;5.386;2022-12-18T08:01:53;102450.41;;;17.99;34.14
61710;BME280;47633;51.494;5.386;2022-12-18T08:04:18;102466.91;;;18.03;34.36
61710;BME280;47633;51.494;5.386;2022-12-18T08:06:44;102473.09;;;18.02;34.48
61710;BME280;47633;51.494;5.386;2022-12-18T08:09:09;102473.19;;;18.00;34.61
61710;BME280;47633;51.494;5.386;2022-12-18T08:11:34;102470.53;;;18.00;34.95
61710;BME280;47633;51.494;5.386;2022-12-18T08:14:00;102476.41;;;18.05;34.45
61710;BME280;47633;51.494;5.386;2022-12-18T08:16:25;102472.00;;;18.06;34.67
61710;BME280;47633;51.494;5.386;2022-12-18T08:18:51;102465.94;;;18.04;34.59
61710;BME280;47633;51.494;5.386;2022-12-18T08:21:20;102478.13;;;18.06;34.58
61710;BME280;47633;51.494;5.386;2022-12-18T08:23:48;102482.47;;;18.07;34.33
61710;BME280;47633;51.494;5.386;2022-12-18T08:26:13;102482.47;;;18.07;34.42
61710;BME280;47633;51.494;5.386;2022-12-18T08:28:39;102479.06;;;18.05;34.59
61710;BME280;47633;51.494;5.386;2022-12-18T08:31:05;102480.75;;;18.06;34.74
61710;BME280;47633;51.494;5.386;2022-12-18T08:33:31;102478.28;;;18.03;34.77
61710;BME280;47633;51.494;5.386;2022-12-18T08:35:58;102479.06;;;18.05;34.52
61710;BME280;47633;51.494;5.386;2022-12-18T08:38:24;102484.16;;;18.08;34.28
61710;BME280;47633;51.494;5.386;2022-12-18T08:40:49;102471.75;;;18.10;34.50
61710;BME280;47633;51.494;5.386;2022-12-18T08:43:14;102464.75;;;18.09;34.30
61710;BME280;47633;51.494;5.386;2022-12-18T08:45:58;102465.44;;;18.13;34.30
61710;BME280;47633;51.494;5.386;2022-12-18T08:48:23;102454.88;;;18.13;34.79
61710;BME280;47633;51.494;5.386;2022-12-18T08:50:56;102449.69;;;18.11;34.46
61710;BME280;47633;51.494;5.386;2022-12-18T08:53:25;102458.31;;;18.15;34.33
61710;BME280;47633;51.494;5.386;2022-12-18T08:55:51;102457.53;;;18.13;34.49
61710;BME280;47633;51.494;5.386;2022-12-18T08:58:16;102458.47;;;18.12;34.64
61710;BME280;47633;51.494;5.386;2022-12-18T09:00:41;102455.59;;;18.17;34.89
61710;BME280;47633;51.494;5.386;2022-12-18T09:03:17;102450.19;;;18.18;35.18
61710;BME280;47633;51.494;5.386;2022-12-18T09:05:43;102439.56;;;18.20;35.13
61710;BME280;47633;51.494;5.386;2022-12-18T09:08:08;102441.09;;;18.24;35.47
61710;BME280;47633;51.494;5.386;2022-12-18T09:10:40;102464.59;;;18.28;35.34
61710;BME280;47633;51.494;5.386;2022-12-18T09:13:06;102474.97;;;18.31;34.74
61710;BME280;47633;51.494;5.386;2022-12-18T09:15:31;102482.88;;;18.31;35.21
61710;BME280;47633;51.494;5.386;2022-12-18T09:17:56;102480.34;;;18.30;35.06
61710;BME280;47633;51.494;5.386;2022-12-18T09:20:22;102489.78;;;18.34;35.13
61710;BME280;47633;51.494;5.386;2022-12-18T09:22:47;102467.13;;;18.30;35.36
61710;BME280;47633;51.494;5.386;2022-12-18T09:25:12;102476.47;;;18.36;35.18
61710;BME280;47633;51.494;5.386;2022-12-18T09:27:37;102473.66;;;18.39;35.43
61710;BME280;47633;51.494;5.386;2022-12-18T09:30:04;102459.88;;;18.34;35.14
61710;BME280;47633;51.494;5.386;2022-12-18T09:32:30;102452.84;;;18.34;35.71
61710;BME280;47633;51.494;5.386;2022-12-18T09:34:55;102441.50;;;18.32;35.39
61710;BME280;47633;51.494;5.386;2022-12-18T09:37:20;102440.56;;;18.33;35.58
61710;BME280;47633;51.494;5.386;2022-12-18T09:39:46;102440.75;;;18.30;35.98
61710;BME280;47633;51.494;5.386;2022-12-18T09:42:22;102443.22;;;18.33;35.80
61710;BME280;47633;51.494;5.386;2022-12-18T09:44:50;102448.31;;;18.36;35.97
61710;BME280;47633;51.494;5.386;2022-12-18T09:47:37;102448.16;;;18.39;35.90
61710;BME280;47633;51.494;5.386;2022-12-18T09:50:14;102436.81;;;18.37;35.67
61710;BME280;47633;51.494;5.386;2022-12-18T09:52:45;102427.03;;;18.39;36.03
61710;BME280;47633;51.494;5.386;2022-12-18T09:55:24;102421.56;;;18.42;35.83
61710;BME280;47633;51.494;5.386;2022-12-18T09:57:55;102423.25;;;18.43;35.55
61710;BME280;47633;51.494;5.386;2022-12-18T10:00:23;102425.91;;;18.43;35.68
61710;BME280;47633;51.494;5.386;2022-12-18T10:02:51;102437.06;;;18.48;35.62
61710;BME280;47633;51.494;5.386;2022-12-18T10:05:33;102428.09;;;18.51;35.54
61710;BME280;47633;51.494;5.386;2022-12-18T10:08:06;102423.56;;;18.53;35.42
61710;BME280;47633;51.494;5.386;2022-12-18T10:10:52;102436.69;;;18.55;36.10
61710;BME280;47633;51.494;5.386;2022-12-18T10:13:24;102433.19;;;18.54;36.10
61710;BME280;47633;51.494;5.386;2022-12-18T10:21:34;102436.03;;;18.51;36.04
61710;BME280;47633;51.494;5.386;2022-12-18T10:24:17;102438.47;;;18.54;36.09
61710;BME280;47633;51.494;5.386;2022-12-18T10:26:47;102419.16;;;18.54;36.10
61710;BME280;47633;51.494;5.386;2022-12-18T10:29:14;102418.28;;;18.53;35.83
61710;BME280;47633;51.494;5.386;2022-12-18T10:31:40;102406.03;;;18.52;35.81
61710;BME280;47633;51.494;5.386;2022-12-18T10:34:10;102399.91;;;18.52;35.95
61710;BME280;47633;51.494;5.386;2022-12-18T10:36:36;102388.50;;;18.51;35.85
61710;BME280;47633;51.494;5.386;2022-12-18T10:41:41;102389.16;;;18.55;36.06
61710;BME280;47633;51.494;5.386;2022-12-18T10:44:18;102372.56;;;18.53;36.08
61710;BME280;47633;51.494;5.386;2022-12-18T10:46:48;102372.22;;;18.59;36.18
61710;BME280;47633;51.494;5.386;2022-12-18T10:49:27;102380.03;;;18.60;36.10
61710;BME280;47633;51.494;5.386;2022-12-18T10:52:19;102380.69;;;18.64;35.90
61710;BME280;47633;51.494;5.386;2022-12-18T10:54:48;102369.38;;;18.62;36.20
61710;BME280;47633;51.494;5.386;2022-12-18T10:59:53;102363.66;;;18.70;35.24
61710;BME280;47633;51.494;5.386;2022-12-18T11:02:40;102357.31;;;18.72;35.87
61710;BME280;47633;51.494;5.386;2022-12-18T11:05:29;102352.03;;;18.72;35.79
61710;BME280;47633;51.494;5.386;2022-12-18T11:07:55;102353.00;;;18.71;35.98
61710;BME280;47633;51.494;5.386;2022-12-18T11:10:30;102347.16;;;18.66;35.87
61710;BME280;47633;51.494;5.386;2022-12-18T11:13:09;102360.16;;;18.69;36.22
61710;BME280;47633;51.494;5.386;2022-12-18T11:15:35;102360.34;;;18.66;36.06
61710;BME280;47633;51.494;5.386;2022-12-18T11:18:00;102357.72;;;18.66;36.04
61710;BME280;47633;51.494;5.386;2022-12-18T11:20:34;102356.84;;;18.65;36.38
61710;BME280;47633;51.494;5.386;2022-12-18T11:23:03;102350.63;;;18.66;36.39
61710;BME280;47633;51.494;5.386;2022-12-18T11:25:30;102340.91;;;18.67;36.39
61710;BME280;47633;51.494;5.386;2022-12-18T11:27:58;102329.22;;;18.71;36.13
61710;BME280;47633;51.494;5.386;2022-12-18T11:30:26;102333.09;;;18.80;36.31
61710;BME280;47633;51.494;5.386;2022-12-18T11:32:58;102324.34;;;18.79;36.31
61710;BME280;47633;51.494;5.386;2022-12-18T11:35:34;102330.50;;;18.94;35.99
61710;BME280;47633;51.494;5.386;2022-12-18T11:38:12;102340.59;;;18.88;36.02
61710;BME280;47633;51.494;5.386;2022-12-18T11:40:43;102338.69;;;18.90;36.52
61710;BME280;47633;51.494;5.386;2022-12-18T11:43:27;102327.56;;;18.84;36.50
61710;BME280;47633;51.494;5.386;2022-12-18T11:45:59;102332.66;;;18.88;36.18
61710;BME280;47633;51.494;5.386;2022-12-18T11:48:52;102330.03;;;18.88;36.94
61710;BME280;47633;51.494;5.386;2022-12-18T11:51:34;102318.88;;;18.82;36.70
61710;BME280;47633;51.494;5.386;2022-12-18T11:54:01;102320.50;;;18.85;36.48
61710;BME280;47633;51.494;5.386;2022-12-18T11:56:41;102315.47;;;18.80;36.45
61710;BME280;47633;51.494;5.386;2022-12-18T11:59:27;102312.94;;;18.79;36.73
61710;BME280;47633;51.494;5.386;2022-12-18T12:13:41;102286.19;;;18.69;36.91
61710;BME280;47633;51.494;5.386;2022-12-18T12:16:17;102281.88;;;18.68;36.92
61710;BME280;47633;51.494;5.386;2022-12-18T12:24:13;102283.69;;;18.67;37.02
61710;BME280;47633;51.494;5.386;2022-12-18T12:35:40;102258.88;;;18.84;37.53
61710;BME280;47633;51.494;5.386;2022-12-18T12:38:13;102248.38;;;18.83;37.87
61710;BME280;47633;51.494;5.386;2022-12-18T12:40:48;102250.78;;;18.88;37.85
61710;BME280;47633;51.494;5.386;2022-12-18T12:43:39;102242.84;;;18.88;37.85
61710;BME280;47633;51.494;5.386;2022-12-18T12:46:09;102237.47;;;18.89;37.87
61710;BME280;47633;51.494;5.386;2022-12-18T12:51:17;102224.81;;;18.80;38.02
61710;BME280;47633;51.494;5.386;2022-12-18T12:53:44;102234.34;;;18.82;38.04
61710;BME280;47633;51.494;5.386;2022-12-18T12:56:13;102229.34;;;18.78;37.94
61710;BME280;47633;51.494;5.386;2022-12-18T12:58:58;102230.28;;;18.77;38.08
61710;BME280;47633;51.494;5.386;2022-12-18T13:01:41;102220.59;;;18.77;38.10
61710;BME280;47633;51.494;5.386;2022-12-18T13:04:52;102215.31;;;18.77;38.08
61710;BME280;47633;51.494;5.386;2022-12-18T13:07:41;102212.84;;;18.74;37.89
61710;BME280;47633;51.494;5.386;2022-12-18T13:15:48;102196.22;;;18.72;38.08
61710;BME280;47633;51.494;5.386;2022-12-18T13:18:19;102205.84;;;18.73;38.16
61710;BME280;47633;51.494;5.386;2022-12-18T13:21:03;102204.16;;;18.72;37.93
61710;BME280;47633;51.494;5.386;2022-12-18T13:23:38;102196.41;;;18.69;38.06
61710;BME280;47633;51.494;5.386;2022-12-18T13:30:58;102205.22;;;18.70;37.11
61710;BME280;47633;51.494;5.386;2022-12-18T13:36:36;102206.44;;;18.64;37.63
61710;BME280;47633;51.494;5.386;2022-12-18T13:38:43;102197.56;;;18.65;37.49
61710;BME280;47633;51.494;5.386;2022-12-18T13:46:21;102184.66;;;18.60;37.79
61710;BME280;47633;51.494;5.386;2022-12-18T13:49:23;102185.22;;;18.65;37.81
61710;BME280;47633;51.494;5.386;2022-12-18T13:51:51;102173.81;;;18.65;37.68
61710;BME280;47633;51.494;5.386;2022-12-18T13:56:47;102171.34;;;18.62;37.98
61710;BME280;47633;51.494;5.386;2022-12-18T13:59:26;102178.25;;;18.64;37.94
61710;BME280;47633;51.494;5.386;2022-12-18T14:01:57;102175.59;;;18.64;38.08
61710;BME280;47633;51.494;5.386;2022-12-18T14:04:26;102178.25;;;18.64;38.27
61710;BME280;47633;51.494;5.386;2022-12-18T14:06:56;102172.09;;;18.64;38.16
61710;BME280;47633;51.494;5.386;2022-12-18T14:09:26;102162.31;;;18.66;38.17
61710;BME280;47633;51.494;5.386;2022-12-18T14:11:54;102156.06;;;18.67;38.38
61710;BME280;47633;51.494;5.386;2022-12-18T14:14:42;102164.63;;;18.71;38.35